sensor_id;sensor_type;location;lat;lon;timestamp;pressure;altitude;pressure_sealevel;temperature;humidity
20394;BME280;10356;50.544;9.642;2022-08-25T00:01:00;98470.56;;;18.11;69.21
20394;BME280;10356;50.544;9.642;2022-08-25T00:03:26;98462.97;;;18.08;69.37
20394;BME280;10356;50.544;9.642;2022-08-25T00:05:53;98458.53;;;18.09;68.85
20394;BME280;10356;50.544;9.642;2022-08-25T00:08:20;98457.19;;;18.05;68.82
20394;BME280;10356;50.544;9.642;2022-08-25T00:10:46;98455.19;;;17.99;69.07
20394;BME280;10356;50.544;9.642;2022-08-25T00:13:13;98454.53;;;17.97;68.91
20394;BME280;10356;50.544;9.642;2022-08-25T00:15:41;98457.47;;;17.94;69.26
20394;BME280;10356;50.544;9.642;2022-08-25T00:18:07;98457.81;;;17.91;69.41
20394;BME280;10356;50.544;9.642;2022-08-25T00:20:34;98453.00;;;17.86;69.71
20394;BME280;10356;50.544;9.642;2022-08-25T00:23:00;98456.66;;;17.85;70.05
20394;BME280;10356;50.544;9.642;2022-08-25T00:25:27;98454.66;;;17.79;70.52
20394;BME280;10356;50.544;9.642;2022-08-25T00:27:53;98457.59;;;17.76;70.76
20394;BME280;10356;50.544;9.642;2022-08-25T00:30:21;98459.72;;;17.73;70.99
20394;BME280;10356;50.544;9.642;2022-08-25T00:32:49;98457.72;;;17.67;71.16
20394;BME280;10356;50.544;9.642;2022-08-25T00:35:15;98452.75;;;17.63;71.53
20394;BME280;10356;50.544;9.642;2022-08-25T00:37:42;98462.78;;;17.60;71.47
20394;BME280;10356;50.544;9.642;2022-08-25T00:40:10;98460.28;;;17.50;72.34
20394;BME280;10356;50.544;9.642;2022-08-25T00:42:36;98458.91;;;17.46;72.63
20394;BME280;10356;50.544;9.642;2022-08-25T00:45:07;98453.25;;;17.41;72.84
20394;BME280;10356;50.544;9.642;2022-08-25T00:47:34;98456.38;;;17.37;73.15
20394;BME280;10356;50.544;9.642;2022-08-25T00:50:06;98451.94;;;17.37;73.04
20394;BME280;10356;50.544;9.642;2022-08-25T00:52:37;98453.09;;;17.35;73.34
20394;BME280;10356;50.544;9.642;2022-08-25T00:55:08;98452.53;;;17.31;74.07
20394;BME280;10356;50.544;9.642;2022-08-25T00:57:39;98449.56;;;17.26;74.42
20394;BME280;10356;50.544;9.642;2022-08-25T01:00:14;98447.41;;;17.22;74.48
20394;BME280;10356;50.544;9.642;2022-08-25T01:02:41;98452.00;;;17.20;74.41
20394;BME280;10356;50.544;9.642;2022-08-25T01:05:10;98454.13;;;17.16;74.36
20394;BME280;10356;50.544;9.642;2022-08-25T01:07:38;98449.16;;;17.13;74.51
20394;BME280;10356;50.544;9.642;2022-08-25T01:10:08;98452.09;;;17.10;74.84
20394;BME280;10356;50.544;9.642;2022-08-25T01:12:36;98452.56;;;17.06;74.91
20394;BME280;10356;50.544;9.642;2022-08-25T01:15:05;98450.38;;;17.01;75.16
20394;BME280;10356;50.544;9.642;2022-08-25T01:17:33;98454.00;;;17.00;75.33
20394;BME280;10356;50.544;9.642;2022-08-25T01:20:00;98455.13;;;16.98;75.69
20394;BME280;10356;50.544;9.642;2022-08-25T01:22:28;98444.38;;;16.91;76.11
20394;BME280;10356;50.544;9.642;2022-08-25T01:24:59;98451.94;;;16.86;75.97
20394;BME280;10356;50.544;9.642;2022-08-25T01:27:28;98455.53;;;16.85;75.92
20394;BME280;10356;50.544;9.642;2022-08-25T01:29:55;98448.63;;;16.84;76.22
20394;BME280;10356;50.544;9.642;2022-08-25T01:32:22;98437.59;;;16.81;76.05
20394;BME280;10356;50.544;9.642;2022-08-25T01:34:49;98447.56;;;16.77;76.46
20394;BME280;10356;50.544;9.642;2022-08-25T01:37:15;98443.13;;;16.77;76.48
20394;BME280;10356;50.544;9.642;2022-08-25T01:39:45;98450.19;;;16.77;76.68
20394;BME280;10356;50.544;9.642;2022-08-25T01:42:32;98448.19;;;16.71;77.09
20394;BME280;10356;50.544;9.642;2022-08-25T01:45:03;98438.66;;;16.70;76.82
20394;BME280;10356;50.544;9.642;2022-08-25T01:47:30;98433.50;;;16.68;76.66
20394;BME280;10356;50.544;9.642;2022-08-25T01:49:57;98436.47;;;16.65;76.73
20394;BME280;10356;50.544;9.642;2022-08-25T01:52:27;98438.88;;;16.59;76.53
20394;BME280;10356;50.544;9.642;2022-08-25T01:54:55;98430.31;;;16.57;76.38
20394;BME280;10356;50.544;9.642;2022-08-25T01:57:22;98432.56;;;16.52;76.51
20394;BME280;10356;50.544;9.642;2022-08-25T01:59:49;98438.41;;;16.46;76.95
20394;BME280;10356;50.544;9.642;2022-08-25T02:02:15;98441.31;;;16.43;77.04
20394;BME280;10356;50.544;9.642;2022-08-25T02:04:42;98432.09;;;16.39;77.08
20394;BME280;10356;50.544;9.642;2022-08-25T02:07:08;98433.50;;;16.33;77.38
20394;BME280;10356;50.544;9.642;2022-08-25T02:09:36;98439.28;;;16.37;77.34
20394;BME280;10356;50.544;9.642;2022-08-25T02:12:05;98437.94;;;16.33;77.73
20394;BME280;10356;50.544;9.642;2022-08-25T02:14:33;98437.25;;;16.31;77.51
20394;BME280;10356;50.544;9.642;2022-08-25T02:17:03;98441.84;;;16.29;77.84
20394;BME280;10356;50.544;9.642;2022-08-25T02:19:30;98448.81;;;16.20;78.42
20394;BME280;10356;50.544;9.642;2022-08-25T02:21:57;98444.03;;;16.16;78.69
20394;BME280;10356;50.544;9.642;2022-08-25T02:24:24;98433.81;;;16.13;78.75
20394;BME280;10356;50.544;9.642;2022-08-25T02:26:50;98437.78;;;16.17;78.59
20394;BME280;10356;50.544;9.642;2022-08-25T02:29:18;98433.81;;;16.13;78.66
20394;BME280;10356;50.544;9.642;2022-08-25T02:31:45;98429.81;;;16.09;78.80
20394;BME280;10356;50.544;9.642;2022-08-25T02:34:12;98426.50;;;16.07;78.93
20394;BME280;10356;50.544;9.642;2022-08-25T02:36:39;98431.75;;;16.07;79.17
20394;BME280;10356;50.544;9.642;2022-08-25T02:39:07;98430.56;;;16.01;79.28
20394;BME280;10356;50.544;9.642;2022-08-25T02:41:34;98438.72;;;15.98;79.08
20394;BME280;10356;50.544;9.642;2022-08-25T02:44:03;98428.22;;;15.98;78.84
20394;BME280;10356;50.544;9.642;2022-08-25T02:46:31;98434.31;;;15.98;79.29
20394;BME280;10356;50.544;9.642;2022-08-25T02:48:58;98437.09;;;15.97;79.55
20394;BME280;10356;50.544;9.642;2022-08-25T02:51:26;98433.09;;;15.93;79.41
20394;BME280;10356;50.544;9.642;2022-08-25T02:53:54;98426.66;;;15.87;79.56
20394;BME280;10356;50.544;9.642;2022-08-25T02:56:22;98429.56;;;15.84;79.65
20394;BME280;10356;50.544;9.642;2022-08-25T02:58:48;98428.78;;;15.74;80.33
20394;BME280;10356;50.544;9.642;2022-08-25T03:01:15;98431.41;;;15.74;80.11
20394;BME280;10356;50.544;9.642;2022-08-25T03:03:45;98428.09;;;15.72;80.46
20394;BME280;10356;50.544;9.642;2022-08-25T03:06:14;98431.72;;;15.71;80.58
20394;BME280;10356;50.544;9.642;2022-08-25T03:08:42;98432.81;;;15.69;80.84
20394;BME280;10356;50.544;9.642;2022-08-25T03:11:10;98435.88;;;15.64;80.72
20394;BME280;10356;50.544;9.642;2022-08-25T03:13:37;98437.97;;;15.61;80.82
20394;BME280;10356;50.544;9.642;2022-08-25T03:16:05;98430.38;;;15.58;80.85
20394;BME280;10356;50.544;9.642;2022-08-25T03:18:32;98434.25;;;15.54;81.18
20394;BME280;10356;50.544;9.642;2022-08-25T03:21:00;98440.50;;;15.53;81.42
20394;BME280;10356;50.544;9.642;2022-08-25T03:23:27;98433.47;;;15.53;81.41
20394;BME280;10356;50.544;9.642;2022-08-25T03:25:54;98439.00;;;15.50;81.47
20394;BME280;10356;50.544;9.642;2022-08-25T03:28:38;98443.72;;;15.47;81.82
20394;BME280;10356;50.544;9.642;2022-08-25T03:31:06;98436.94;;;15.44;81.94
20394;BME280;10356;50.544;9.642;2022-08-25T03:33:34;98437.34;;;15.40;82.00
20394;BME280;10356;50.544;9.642;2022-08-25T03:36:02;98438.59;;;15.36;82.38
20394;BME280;10356;50.544;9.642;2022-08-25T03:38:29;98438.59;;;15.36;82.39
20394;BME280;10356;50.544;9.642;2022-08-25T03:40:56;98437.91;;;15.34;82.52
20394;BME280;10356;50.544;9.642;2022-08-25T03:43:22;98428.50;;;15.31;82.57
20394;BME280;10356;50.544;9.642;2022-08-25T03:45:49;98426.75;;;15.22;83.35
20394;BME280;10356;50.544;9.642;2022-08-25T03:48:16;98426.75;;;15.22;82.86
20394;BME280;10356;50.544;9.642;2022-08-25T03:50:44;98426.09;;;15.20;82.75
20394;BME280;10356;50.544;9.642;2022-08-25T03:53:12;98419.47;;;15.16;82.88
20394;BME280;10356;50.544;9.642;2022-08-25T03:55:39;98423.34;;;15.12;83.16
20394;BME280;10356;50.544;9.642;2022-08-25T03:58:06;98420.03;;;15.10;83.54
20394;BME280;10356;50.544;9.642;2022-08-25T04:00:33;98418.50;;;15.07;83.83
20394;BME280;10356;50.544;9.642;2022-08-25T04:02:59;98412.31;;;15.08;83.74
20394;BME280;10356;50.544;9.642;2022-08-25T04:05:26;98413.13;;;15.09;83.85
20394;BME280;10356;50.544;9.642;2022-08-25T04:07:53;98420.03;;;15.10;83.87
20394;BME280;10356;50.544;9.642;2022-08-25T04:10:21;98419.34;;;15.08;83.73
20394;BME280;10356;50.544;9.642;2022-08-25T04:12:47;98422.13;;;15.06;83.93
20394;BME280;10356;50.544;9.642;2022-08-25T04:15:14;98425.03;;;15.03;84.34
20394;BME280;10356;50.544;9.642;2022-08-25T04:17:41;98431.09;;;15.04;84.18
20394;BME280;10356;50.544;9.642;2022-08-25T04:20:09;98429.72;;;15.00;84.51
20394;BME280;10356;50.544;9.642;2022-08-25T04:22:37;98421.72;;;15.01;84.96
20394;BME280;10356;50.544;9.642;2022-08-25T04:25:05;98424.47;;;15.00;84.92
20394;BME280;10356;50.544;9.642;2022-08-25T04:27:34;98427.00;;;14.92;85.42
20394;BME280;10356;50.544;9.642;2022-08-25T04:30:01;98426.41;;;14.98;84.98
20394;BME280;10356;50.544;9.642;2022-08-25T04:32:27;98415.09;;;14.97;85.12
20394;BME280;10356;50.544;9.642;2022-08-25T04:34:55;98425.44;;;14.99;84.99
20394;BME280;10356;50.544;9.642;2022-08-25T04:37:22;98426.13;;;15.01;84.95
20394;BME280;10356;50.544;9.642;2022-08-25T04:39:48;98429.31;;;15.04;84.68
20394;BME280;10356;50.544;9.642;2022-08-25T04:42:15;98434.97;;;15.00;84.47
20394;BME280;10356;50.544;9.642;2022-08-25T04:44:43;98436.34;;;15.04;84.63
20394;BME280;10356;50.544;9.642;2022-08-25T04:47:09;98435.25;;;15.06;84.87
20394;BME280;10356;50.544;9.642;2022-08-25T04:49:36;98428.88;;;15.09;84.36
20394;BME280;10356;50.544;9.642;2022-08-25T04:52:03;98426.66;;;15.14;84.49
20394;BME280;10356;50.544;9.642;2022-08-25T04:54:29;98425.97;;;15.12;84.54
20394;BME280;10356;50.544;9.642;2022-08-25T04:56:56;98417.25;;;15.11;84.93
20394;BME280;10356;50.544;9.642;2022-08-25T04:59:22;98413.38;;;15.15;84.83
20394;BME280;10356;50.544;9.642;2022-08-25T05:01:50;98410.72;;;15.25;84.33
20394;BME280;10356;50.544;9.642;2022-08-25T05:04:20;98412.06;;;15.29;84.23
20394;BME280;10356;50.544;9.642;2022-08-25T05:06:47;98402.94;;;15.33;84.05
20394;BME280;10356;50.544;9.642;2022-08-25T05:09:13;98410.00;;;15.42;83.71
20394;BME280;10356;50.544;9.642;2022-08-25T05:11:40;98411.88;;;15.59;83.28
20394;BME280;10356;50.544;9.642;2022-08-25T05:14:06;98417.59;;;15.72;82.60
20394;BME280;10356;50.544;9.642;2022-08-25T05:16:37;98417.00;;;15.78;82.40
20394;BME280;10356;50.544;9.642;2022-08-25T05:19:05;98417.53;;;15.82;82.31
20394;BME280;10356;50.544;9.642;2022-08-25T05:21:33;98414.47;;;15.86;82.23
20394;BME280;10356;50.544;9.642;2022-08-25T05:24:00;98416.13;;;15.87;82.15
20394;BME280;10356;50.544;9.642;2022-08-25T05:26:29;98420.25;;;15.90;82.21
20394;BME280;10356;50.544;9.642;2022-08-25T05:28:57;98412.91;;;15.93;81.96
20394;BME280;10356;50.544;9.642;2022-08-25T05:31:25;98422.16;;;15.98;82.04
20394;BME280;10356;50.544;9.642;2022-08-25T05:33:52;98430.25;;;16.04;81.74
20394;BME280;10356;50.544;9.642;2022-08-25T05:36:21;98425.91;;;16.13;81.17
20394;BME280;10356;50.544;9.642;2022-08-25T05:38:48;98428.63;;;16.21;80.98
20394;BME280;10356;50.544;9.642;2022-08-25T05:41:16;98433.81;;;16.30;80.76
20394;BME280;10356;50.544;9.642;2022-08-25T05:43:45;98438.47;;;16.36;80.62
20394;BME280;10356;50.544;9.642;2022-08-25T05:46:14;98435.09;;;16.44;80.34
20394;BME280;10356;50.544;9.642;2022-08-25T05:48:41;98438.13;;;16.49;80.09
20394;BME280;10356;50.544;9.642;2022-08-25T05:51:11;98441.13;;;16.54;79.75
20394;BME280;10356;50.544;9.642;2022-08-25T05:53:41;98428.19;;;16.60;79.74
20394;BME280;10356;50.544;9.642;2022-08-25T05:56:08;98432.31;;;16.63;79.75
20394;BME280;10356;50.544;9.642;2022-08-25T05:58:36;98432.72;;;16.68;79.84
20394;BME280;10356;50.544;9.642;2022-08-25T06:01:03;98431.78;;;16.77;79.45
20394;BME280;10356;50.544;9.642;2022-08-25T06:03:44;98434.69;;;16.92;79.11
20394;BME280;10356;50.544;9.642;2022-08-25T06:06:12;98423.25;;;17.01;78.78
20394;BME280;10356;50.544;9.642;2022-08-25T06:08:41;98418.16;;;17.07;78.39
20394;BME280;10356;50.544;9.642;2022-08-25T06:11:09;98417.25;;;17.16;78.41
20394;BME280;10356;50.544;9.642;2022-08-25T06:13:35;98410.91;;;17.27;77.83
20394;BME280;10356;50.544;9.642;2022-08-25T06:16:02;98419.34;;;17.38;77.43
20394;BME280;10356;50.544;9.642;2022-08-25T06:18:29;98415.16;;;17.53;77.21
20394;BME280;10356;50.544;9.642;2022-08-25T06:20:56;98415.53;;;17.67;76.52
20394;BME280;10356;50.544;9.642;2022-08-25T06:23:22;98417.88;;;17.78;76.11
20394;BME280;10356;50.544;9.642;2022-08-25T06:25:51;98417.91;;;17.86;76.01
20394;BME280;10356;50.544;9.642;2022-08-25T06:28:18;98415.00;;;18.05;75.21
20394;BME280;10356;50.544;9.642;2022-08-25T06:30:45;98413.72;;;18.17;75.22
20394;BME280;10356;50.544;9.642;2022-08-25T06:33:12;98413.72;;;18.33;74.38
20394;BME280;10356;50.544;9.642;2022-08-25T06:35:40;98411.47;;;18.54;74.37
20394;BME280;10356;50.544;9.642;2022-08-25T06:38:07;98407.84;;;18.71;73.83
20394;BME280;10356;50.544;9.642;2022-08-25T06:40:34;98398.94;;;18.72;73.29
20394;BME280;10356;50.544;9.642;2022-08-25T06:43:02;98400.91;;;18.94;72.80
20394;BME280;10356;50.544;9.642;2022-08-25T06:45:31;98399.84;;;19.11;71.95
20394;BME280;10356;50.544;9.642;2022-08-25T06:47:58;98392.91;;;19.26;71.22
20394;BME280;10356;50.544;9.642;2022-08-25T06:50:24;98395.50;;;19.51;70.76
20394;BME280;10356;50.544;9.642;2022-08-25T06:52:51;98392.38;;;19.78;69.95
20394;BME280;10356;50.544;9.642;2022-08-25T06:55:18;98385.78;;;19.74;70.63
20394;BME280;10356;50.544;9.642;2022-08-25T06:57:45;98378.41;;;19.92;69.66
20394;BME280;10356;50.544;9.642;2022-08-25T07:00:13;98376.50;;;20.08;69.10
20394;BME280;10356;50.544;9.642;2022-08-25T07:02:41;98381.31;;;20.36;68.99
20394;BME280;10356;50.544;9.642;2022-08-25T07:05:08;98377.97;;;20.56;67.90
20394;BME280;10356;50.544;9.642;2022-08-25T07:07:36;98373.88;;;20.76;67.93
20394;BME280;10356;50.544;9.642;2022-08-25T07:10:03;98374.44;;;20.86;67.54
20394;BME280;10356;50.544;9.642;2022-08-25T07:12:29;98380.94;;;21.13;67.73
20394;BME280;10356;50.544;9.642;2022-08-25T07:14:56;98379.06;;;21.36;66.87
20394;BME280;10356;50.544;9.642;2022-08-25T07:17:24;98376.00;;;21.54;66.15
20394;BME280;10356;50.544;9.642;2022-08-25T07:19:51;98381.34;;;22.04;64.31
20394;BME280;10356;50.544;9.642;2022-08-25T07:22:17;98389.56;;;22.30;62.64
20394;BME280;10356;50.544;9.642;2022-08-25T07:24:44;98381.81;;;22.71;61.70
20394;BME280;10356;50.544;9.642;2022-08-25T07:27:11;98374.66;;;22.99;60.41
20394;BME280;10356;50.544;9.642;2022-08-25T07:29:37;98369.16;;;23.01;60.38
20394;BME280;10356;50.544;9.642;2022-08-25T07:32:04;98377.63;;;23.39;59.94
20394;BME280;10356;50.544;9.642;2022-08-25T07:34:32;98367.50;;;23.68;59.32
20394;BME280;10356;50.544;9.642;2022-08-25T07:37:16;98374.16;;;23.98;58.61
20394;BME280;10356;50.544;9.642;2022-08-25T07:39:42;98369.56;;;24.13;57.52
20394;BME280;10356;50.544;9.642;2022-08-25T07:42:11;98369.78;;;24.32;56.03
20394;BME280;10356;50.544;9.642;2022-08-25T07:44:37;98372.69;;;24.56;55.53
20394;BME280;10356;50.544;9.642;2022-08-25T07:47:04;98376.81;;;24.98;56.70
20394;BME280;10356;50.544;9.642;2022-08-25T07:49:32;98378.44;;;25.12;55.09
20394;BME280;10356;50.544;9.642;2022-08-25T07:51:58;98377.16;;;25.28;54.59
20394;BME280;10356;50.544;9.642;2022-08-25T07:54:25;98370.38;;;25.45;54.71
20394;BME280;10356;50.544;9.642;2022-08-25T07:56:52;98368.09;;;25.48;54.15
20394;BME280;10356;50.544;9.642;2022-08-25T07:59:19;98363.84;;;25.85;54.12
20394;BME280;10356;50.544;9.642;2022-08-25T08:01:45;98361.91;;;26.05;52.29
20394;BME280;10356;50.544;9.642;2022-08-25T08:04:12;98361.50;;;26.39;52.35
20394;BME280;10356;50.544;9.642;2022-08-25T08:06:40;98363.91;;;25.72;52.92
20394;BME280;10356;50.544;9.642;2022-08-25T08:09:06;98369.31;;;26.03;52.94
20394;BME280;10356;50.544;9.642;2022-08-25T08:11:34;98365.03;;;25.96;53.15
20394;BME280;10356;50.544;9.642;2022-08-25T08:14:05;98362.69;;;26.50;53.18
20394;BME280;10356;50.544;9.642;2022-08-25T08:16:32;98356.78;;;26.66;52.31
20394;BME280;10356;50.544;9.642;2022-08-25T08:18:59;98363.00;;;27.09;50.34
20394;BME280;10356;50.544;9.642;2022-08-25T08:21:28;98361.63;;;26.82;51.69
20394;BME280;10356;50.544;9.642;2022-08-25T08:23:57;98367.78;;;27.25;49.80
20394;BME280;10356;50.544;9.642;2022-08-25T08:26:25;98366.44;;;27.41;50.60
20394;BME280;10356;50.544;9.642;2022-08-25T08:28:52;98360.47;;;27.57;49.58
20394;BME280;10356;50.544;9.642;2022-08-25T08:31:20;98358.50;;;28.00;49.71
20394;BME280;10356;50.544;9.642;2022-08-25T08:33:47;98359.28;;;28.31;48.07
20394;BME280;10356;50.544;9.642;2022-08-25T08:36:14;98351.81;;;28.21;48.57
20394;BME280;10356;50.544;9.642;2022-08-25T08:38:42;98360.03;;;27.90;48.14
20394;BME280;10356;50.544;9.642;2022-08-25T08:41:26;98350.13;;;28.08;47.95
20394;BME280;10356;50.544;9.642;2022-08-25T08:44:25;98357.13;;;28.39;47.97
20394;BME280;10356;50.544;9.642;2022-08-25T08:46:59;98343.72;;;28.51;46.86
20394;BME280;10356;50.544;9.642;2022-08-25T08:49:32;98350.44;;;28.71;46.53
20394;BME280;10356;50.544;9.642;2022-08-25T08:52:02;98357.44;;;28.31;46.74
20394;BME280;10356;50.544;9.642;2022-08-25T08:54:31;98348.00;;;29.04;46.55
20394;BME280;10356;50.544;9.642;2022-08-25T08:57:06;98352.22;;;29.24;45.82
20394;BME280;10356;50.544;9.642;2022-08-25T08:59:40;98349.28;;;29.37;44.66
20394;BME280;10356;50.544;9.642;2022-08-25T09:02:14;98350.38;;;29.64;45.92
20394;BME280;10356;50.544;9.642;2022-08-25T09:04:44;98349.13;;;29.55;44.29
20394;BME280;10356;50.544;9.642;2022-08-25T09:07:16;98352.66;;;29.95;43.44
20394;BME280;10356;50.544;9.642;2022-08-25T09:09:46;98347.47;;;29.77;44.05
20394;BME280;10356;50.544;9.642;2022-08-25T09:12:23;98350.53;;;30.25;43.96
20394;BME280;10356;50.544;9.642;2022-08-25T09:15:01;98348.22;;;30.45;42.84
20394;BME280;10356;50.544;9.642;2022-08-25T09:20:37;98340.81;;;30.69;42.87
20394;BME280;10356;50.544;9.642;2022-08-25T09:23:14;98335.28;;;31.09;41.55
20394;BME280;10356;50.544;9.642;2022-08-25T09:25:50;98337.88;;;31.20;41.36
20394;BME280;10356;50.544;9.642;2022-08-25T09:28:25;98334.22;;;31.48;40.59
20394;BME280;10356;50.544;9.642;2022-08-25T09:30:58;98331.97;;;31.40;40.56
20394;BME280;10356;50.544;9.642;2022-08-25T09:33:27;98324.00;;;31.33;41.56
20394;BME280;10356;50.544;9.642;2022-08-25T09:35:55;98324.69;;;31.02;41.62
20394;BME280;10356;50.544;9.642;2022-08-25T09:38:22;98320.59;;;31.38;40.24
20394;BME280;10356;50.544;9.642;2022-08-25T09:40:54;98312.28;;;30.85;41.56
20394;BME280;10356;50.544;9.642;2022-08-25T09:43:29;98309.25;;;30.98;41.06
20394;BME280;10356;50.544;9.642;2022-08-25T09:45:59;98304.78;;;30.70;41.14
20394;BME280;10356;50.544;9.642;2022-08-25T09:48:27;98295.13;;;31.07;40.94
20394;BME280;10356;50.544;9.642;2022-08-25T09:51:00;98288.50;;;31.53;39.78
20394;BME280;10356;50.544;9.642;2022-08-25T09:53:28;98280.28;;;31.43;38.40
20394;BME280;10356;50.544;9.642;2022-08-25T09:56:01;98279.31;;;31.11;40.28
20394;BME280;10356;50.544;9.642;2022-08-25T09:58:31;98283.16;;;30.82;40.00
20394;BME280;10356;50.544;9.642;2022-08-25T10:01:05;98273.50;;;30.03;41.99
20394;BME280;10356;50.544;9.642;2022-08-25T10:03:32;98273.63;;;29.79;42.04
20394;BME280;10356;50.544;9.642;2022-08-25T10:06:03;98262.09;;;29.67;42.84
20394;BME280;10356;50.544;9.642;2022-08-25T10:08:33;98267.59;;;29.61;43.05
20394;BME280;10356;50.544;9.642;2022-08-25T10:11:02;98260.56;;;29.71;42.23
20394;BME280;10356;50.544;9.642;2022-08-25T10:13:40;98256.78;;;29.84;41.27
20394;BME280;10356;50.544;9.642;2022-08-25T10:16:12;98255.00;;;30.06;41.50
20394;BME280;10356;50.544;9.642;2022-08-25T10:18:59;98249.03;;;29.59;41.67
20394;BME280;10356;50.544;9.642;2022-08-25T10:21:26;98258.41;;;29.45;42.40
20394;BME280;10356;50.544;9.642;2022-08-25T10:23:53;98247.72;;;29.34;42.73
20394;BME280;10356;50.544;9.642;2022-08-25T10:26:28;98247.16;;;29.60;42.12
20394;BME280;10356;50.544;9.642;2022-08-25T10:29:08;98243.84;;;29.81;41.83
20394;BME280;10356;50.544;9.642;2022-08-25T10:31:44;98240.03;;;29.65;42.04
20394;BME280;10356;50.544;9.642;2022-08-25T10:34:23;98228.44;;;29.76;41.65
20394;BME280;10356;50.544;9.642;2022-08-25T10:36:58;98227.66;;;30.09;41.52
20394;BME280;10356;50.544;9.642;2022-08-25T10:39:37;98225.22;;;30.41;40.55
20394;BME280;10356;50.544;9.642;2022-08-25T10:42:13;98215.47;;;30.90;39.70
20394;BME280;10356;50.544;9.642;2022-08-25T10:44:51;98225.44;;;31.11;38.53
20394;BME280;10356;50.544;9.642;2022-08-25T10:47:55;98227.53;;;31.47;37.61
20394;BME280;10356;50.544;9.642;2022-08-25T10:50:30;98216.41;;;31.65;36.62
20394;BME280;10356;50.544;9.642;2022-08-25T10:53:13;98212.00;;;31.86;36.70
20394;BME280;10356;50.544;9.642;2022-08-25T10:55:50;98204.34;;;31.99;36.26
20394;BME280;10356;50.544;9.642;2022-08-25T10:58:28;98203.75;;;32.24;35.23
20394;BME280;10356;50.544;9.642;2022-08-25T11:01:14;98192.75;;;32.36;36.62
20394;BME280;10356;50.544;9.642;2022-08-25T11:03:48;98193.41;;;32.48;35.20
20394;BME280;10356;50.544;9.642;2022-08-25T11:06:19;98191.50;;;32.95;35.62
20394;BME280;10356;50.544;9.642;2022-08-25T11:08:50;98191.03;;;32.19;36.20
20394;BME280;10356;50.544;9.642;2022-08-25T11:11:24;98175.25;;;32.80;36.11
20394;BME280;10356;50.544;9.642;2022-08-25T11:13:54;98182.63;;;32.48;35.24
20394;BME280;10356;50.544;9.642;2022-08-25T11:16:32;98178.88;;;32.59;34.82
20394;BME280;10356;50.544;9.642;2022-08-25T11:19:06;98180.31;;;32.66;35.17
20394;BME280;10356;50.544;9.642;2022-08-25T11:21:41;98178.50;;;32.82;35.24
20394;BME280;10356;50.544;9.642;2022-08-25T11:24:21;98173.50;;;33.11;34.86
20394;BME280;10356;50.544;9.642;2022-08-25T11:26:54;98169.59;;;33.53;34.05
20394;BME280;10356;50.544;9.642;2022-08-25T11:29:24;98186.16;;;34.07;33.83
20394;BME280;10356;50.544;9.642;2022-08-25T11:31:53;98184.50;;;33.96;33.18
20394;BME280;10356;50.544;9.642;2022-08-25T11:34:21;98176.91;;;33.58;33.26
20394;BME280;10356;50.544;9.642;2022-08-25T11:36:50;98171.50;;;32.86;34.47
20394;BME280;10356;50.544;9.642;2022-08-25T11:39:28;98178.09;;;32.21;35.77
20394;BME280;10356;50.544;9.642;2022-08-25T11:42:06;98175.81;;;31.50;36.82
20394;BME280;10356;50.544;9.642;2022-08-25T11:44:45;98178.16;;;30.98;38.21
20394;BME280;10356;50.544;9.642;2022-08-25T11:47:30;98170.19;;;30.87;38.06
20394;BME280;10356;50.544;9.642;2022-08-25T11:50:03;98166.66;;;30.64;38.19
20394;BME280;10356;50.544;9.642;2022-08-25T11:52:50;98166.41;;;31.04;37.19
20394;BME280;10356;50.544;9.642;2022-08-25T11:55:22;98166.13;;;31.06;38.03
20394;BME280;10356;50.544;9.642;2022-08-25T11:58:16;98158.81;;;31.01;37.25
20394;BME280;10356;50.544;9.642;2022-08-25T12:00:46;98156.59;;;30.77;37.06
20394;BME280;10356;50.544;9.642;2022-08-25T12:03:45;98147.50;;;30.83;37.71
20394;BME280;10356;50.544;9.642;2022-08-25T12:06:15;98150.69;;;30.96;37.37
20394;BME280;10356;50.544;9.642;2022-08-25T12:08:48;98139.75;;;31.83;35.51
20394;BME280;10356;50.544;9.642;2022-08-25T12:11:44;98131.16;;;32.22;34.49
20394;BME280;10356;50.544;9.642;2022-08-25T12:14:31;98129.78;;;31.83;35.15
20394;BME280;10356;50.544;9.642;2022-08-25T12:17:07;98129.25;;;32.65;35.08
20394;BME280;10356;50.544;9.642;2022-08-25T12:20:04;98128.19;;;33.38;32.81
20394;BME280;10356;50.544;9.642;2022-08-25T12:22:42;98119.75;;;33.14;32.31
20394;BME280;10356;50.544;9.642;2022-08-25T12:25:27;98113.41;;;32.78;33.83
20394;BME280;10356;50.544;9.642;2022-08-25T12:28:04;98119.22;;;32.50;33.46
20394;BME280;10356;50.544;9.642;2022-08-25T12:30:41;98126.06;;;32.68;33.16
20394;BME280;10356;50.544;9.642;2022-08-25T12:33:14;98126.41;;;32.86;33.01
20394;BME280;10356;50.544;9.642;2022-08-25T12:35:55;98129.13;;;32.45;33.52
20394;BME280;10356;50.544;9.642;2022-08-25T12:38:28;98127.63;;;32.17;34.57
20394;BME280;10356;50.544;9.642;2022-08-25T12:41:00;98129.81;;;31.88;34.69
20394;BME280;10356;50.544;9.642;2022-08-25T12:43:30;98131.94;;;31.86;34.83
20394;BME280;10356;50.544;9.642;2022-08-25T12:46:32;98125.16;;;31.79;35.68
20394;BME280;10356;50.544;9.642;2022-08-25T12:48:59;98125.72;;;31.49;36.06
20394;BME280;10356;50.544;9.642;2022-08-25T12:51:49;98123.88;;;31.55;36.07
20394;BME280;10356;50.544;9.642;2022-08-25T12:54:23;98117.06;;;31.47;36.30
20394;BME280;10356;50.544;9.642;2022-08-25T12:56:54;98117.13;;;31.30;36.67
20394;BME280;10356;50.544;9.642;2022-08-25T12:59:30;98122.78;;;31.56;36.08
20394;BME280;10356;50.544;9.642;2022-08-25T13:02:13;98122.06;;;31.65;34.55
20394;BME280;10356;50.544;9.642;2022-08-25T13:05:15;98115.72;;;31.23;34.13
20394;BME280;10356;50.544;9.642;2022-08-25T13:08:09;98119.22;;;30.97;33.87
20394;BME280;10356;50.544;9.642;2022-08-25T13:10:45;98115.66;;;31.18;34.63
20394;BME280;10356;50.544;9.642;2022-08-25T13:13:23;98108.06;;;31.68;33.90
20394;BME280;10356;50.544;9.642;2022-08-25T13:15:59;98119.25;;;32.18;33.43
20394;BME280;10356;50.544;9.642;2022-08-25T13:18:27;98108.47;;;32.13;33.57
20394;BME280;10356;50.544;9.642;2022-08-25T13:21:02;98110.59;;;32.53;32.97